sensor_id;sensor_type;location;lat;lon;timestamp;temperature;humidity
17639;DHT22;8938;53.546;9.954;2023-02-28T00:00:19;8.50;93.50
17639;DHT22;8938;53.546;9.954;2023-02-28T00:02:45;8.60;93.70
17639;DHT22;8938;53.546;9.954;2023-02-28T00:05:14;8.70;93.70
17639;DHT22;8938;53.546;9.954;2023-02-28T00:07:40;8.80;93.90
17639;DHT22;8938;53.546;9.954;2023-02-28T00:10:09;8.90;93.60
17639;DHT22;8938;53.546;9.954;2023-02-28T00:12:35;8.90;93.60
17639;DHT22;8938;53.546;9.954;2023-02-28T00:15:02;8.90;93.40
17639;DHT22;8938;53.546;9.954;2023-02-28T00:17:28;8.90;93.50
17639;DHT22;8938;53.546;9.954;2023-02-28T00:19:53;8.90;93.40
17639;DHT22;8938;53.546;9.954;2023-02-28T00:22:20;8.90;93.40
17639;DHT22;8938;53.546;9.954;2023-02-28T00:24:46;8.90;93.40
17639;DHT22;8938;53.546;9.954;2023-02-28T00:27:13;8.90;93.40
17639;DHT22;8938;53.546;9.954;2023-02-28T00:29:39;8.70;93.10
17639;DHT22;8938;53.546;9.954;2023-02-28T00:32:06;8.50;93.20
17639;DHT22;8938;53.546;9.954;2023-02-28T00:34:32;8.30;93.30
17639;DHT22;8938;53.546;9.954;2023-02-28T00:37:03;8.10;93.60
17639;DHT22;8938;53.546;9.954;2023-02-28T00:39:29;8.10;93.80
17639;DHT22;8938;53.546;9.954;2023-02-28T00:41:54;8.10;93.90
17639;DHT22;8938;53.546;9.954;2023-02-28T00:44:20;8.10;94.10
17639;DHT22;8938;53.546;9.954;2023-02-28T00:46:46;8.20;94.10
17639;DHT22;8938;53.546;9.954;2023-02-28T00:49:12;8.30;94.10
17639;DHT22;8938;53.546;9.954;2023-02-28T00:51:38;8.40;94.00
17639;DHT22;8938;53.546;9.954;2023-02-28T00:54:03;8.50;93.90
17639;DHT22;8938;53.546;9.954;2023-02-28T00:56:29;8.40;93.70
17639;DHT22;8938;53.546;9.954;2023-02-28T00:58:54;8.30;93.80
17639;DHT22;8938;53.546;9.954;2023-02-28T01:01:20;8.20;93.90
17639;DHT22;8938;53.546;9.954;2023-02-28T01:03:45;8.10;94.00
17639;DHT22;8938;53.546;9.954;2023-02-28T01:06:11;8.00;94.00
17639;DHT22;8938;53.546;9.954;2023-02-28T01:08:36;8.00;94.10
17639;DHT22;8938;53.546;9.954;2023-02-28T01:11:10;8.00;94.20
17639;DHT22;8938;53.546;9.954;2023-02-28T01:13:36;8.10;94.30
17639;DHT22;8938;53.546;9.954;2023-02-28T01:16:02;8.10;94.20
17639;DHT22;8938;53.546;9.954;2023-02-28T01:18:27;8.10;94.30
17639;DHT22;8938;53.546;9.954;2023-02-28T01:20:54;8.20;94.50
17639;DHT22;8938;53.546;9.954;2023-02-28T01:23:21;8.20;94.40
17639;DHT22;8938;53.546;9.954;2023-02-28T01:25:48;8.20;94.60
17639;DHT22;8938;53.546;9.954;2023-02-28T01:28:14;8.10;94.60
17639;DHT22;8938;53.546;9.954;2023-02-28T01:30:40;8.10;94.60
17639;DHT22;8938;53.546;9.954;2023-02-28T01:33:05;8.00;94.70
17639;DHT22;8938;53.546;9.954;2023-02-28T01:35:35;7.90;94.80
17639;DHT22;8938;53.546;9.954;2023-02-28T01:38:01;7.90;94.90
17639;DHT22;8938;53.546;9.954;2023-02-28T01:40:27;7.80;94.90
17639;DHT22;8938;53.546;9.954;2023-02-28T01:42:53;7.70;95.00
17639;DHT22;8938;53.546;9.954;2023-02-28T01:47:45;7.70;95.30
17639;DHT22;8938;53.546;9.954;2023-02-28T01:50:19;7.80;95.30
17639;DHT22;8938;53.546;9.954;2023-02-28T01:52:46;7.80;95.50
17639;DHT22;8938;53.546;9.954;2023-02-28T01:55:13;7.70;95.60
17639;DHT22;8938;53.546;9.954;2023-02-28T01:57:46;7.70;95.70
17639;DHT22;8938;53.546;9.954;2023-02-28T02:00:16;7.80;95.60
17639;DHT22;8938;53.546;9.954;2023-02-28T02:02:44;7.70;95.30
17639;DHT22;8938;53.546;9.954;2023-02-28T02:05:14;7.70;95.40
17639;DHT22;8938;53.546;9.954;2023-02-28T02:07:41;7.70;95.30
17639;DHT22;8938;53.546;9.954;2023-02-28T02:10:20;7.60;95.30
17639;DHT22;8938;53.546;9.954;2023-02-28T02:15:45;7.40;95.50
17639;DHT22;8938;53.546;9.954;2023-02-28T02:18:39;7.40;95.60
17639;DHT22;8938;53.546;9.954;2023-02-28T02:21:36;7.40;95.70
17639;DHT22;8938;53.546;9.954;2023-02-28T02:24:21;7.50;95.70
17639;DHT22;8938;53.546;9.954;2023-02-28T02:38:35;7.30;96.20
17639;DHT22;8938;53.546;9.954;2023-02-28T02:41:09;7.30;96.30
17639;DHT22;8938;53.546;9.954;2023-02-28T02:48:52;7.20;96.20
17639;DHT22;8938;53.546;9.954;2023-02-28T02:51:21;7.20;96.30
17639;DHT22;8938;53.546;9.954;2023-02-28T02:53:55;7.20;96.40
17639;DHT22;8938;53.546;9.954;2023-02-28T02:56:25;7.20;96.80
17639;DHT22;8938;53.546;9.954;2023-02-28T02:58:54;7.20;96.50
17639;DHT22;8938;53.546;9.954;2023-02-28T03:01:23;7.20;96.50
17639;DHT22;8938;53.546;9.954;2023-02-28T03:03:57;7.10;96.50
17639;DHT22;8938;53.546;9.954;2023-02-28T03:06:24;7.00;96.60
17639;DHT22;8938;53.546;9.954;2023-02-28T03:08:49;7.00;96.70
17639;DHT22;8938;53.546;9.954;2023-02-28T03:11:15;7.10;96.70
17639;DHT22;8938;53.546;9.954;2023-02-28T03:16:54;7.30;96.40
17639;DHT22;8938;53.546;9.954;2023-02-28T03:19:47;7.30;96.20
17639;DHT22;8938;53.546;9.954;2023-02-28T03:22:24;7.30;96.20
17639;DHT22;8938;53.546;9.954;2023-02-28T03:25:28;7.10;96.10
17639;DHT22;8938;53.546;9.954;2023-02-28T03:28:04;7.20;96.20
17639;DHT22;8938;53.546;9.954;2023-02-28T03:30:41;7.20;96.20
17639;DHT22;8938;53.546;9.954;2023-02-28T03:33:20;7.10;96.20
17639;DHT22;8938;53.546;9.954;2023-02-28T03:35:55;7.00;96.20
17639;DHT22;8938;53.546;9.954;2023-02-28T03:41:20;6.80;96.50
17639;DHT22;8938;53.546;9.954;2023-02-28T03:43:55;6.70;96.70
17639;DHT22;8938;53.546;9.954;2023-02-28T03:46:25;6.80;96.80
17639;DHT22;8938;53.546;9.954;2023-02-28T03:48:56;6.90;96.80
17639;DHT22;8938;53.546;9.954;2023-02-28T03:51:24;7.00;96.80
17639;DHT22;8938;53.546;9.954;2023-02-28T03:53:54;7.00;96.60
17639;DHT22;8938;53.546;9.954;2023-02-28T03:56:22;7.10;96.70
17639;DHT22;8938;53.546;9.954;2023-02-28T03:59:02;7.10;96.70
17639;DHT22;8938;53.546;9.954;2023-02-28T04:01:42;7.00;96.80
17639;DHT22;8938;53.546;9.954;2023-02-28T04:04:09;6.80;96.90
17639;DHT22;8938;53.546;9.954;2023-02-28T04:06:35;6.60;97.10
17639;DHT22;8938;53.546;9.954;2023-02-28T04:09:03;6.50;97.20
17639;DHT22;8938;53.546;9.954;2023-02-28T04:11:43;6.40;97.30
17639;DHT22;8938;53.546;9.954;2023-02-28T04:14:10;6.30;97.60
17639;DHT22;8938;53.546;9.954;2023-02-28T04:16:38;6.20;97.90
17639;DHT22;8938;53.546;9.954;2023-02-28T04:19:05;6.20;97.90
17639;DHT22;8938;53.546;9.954;2023-02-28T04:21:36;6.30;97.90
17639;DHT22;8938;53.546;9.954;2023-02-28T04:24:04;6.50;97.90
17639;DHT22;8938;53.546;9.954;2023-02-28T04:26:31;6.60;97.80
17639;DHT22;8938;53.546;9.954;2023-02-28T04:28:57;6.60;97.70
17639;DHT22;8938;53.546;9.954;2023-02-28T04:31:23;6.50;97.60
17639;DHT22;8938;53.546;9.954;2023-02-28T04:33:49;6.30;97.70
17639;DHT22;8938;53.546;9.954;2023-02-28T04:36:14;6.20;98.00
17639;DHT22;8938;53.546;9.954;2023-02-28T04:38:42;6.10;98.20
17639;DHT22;8938;53.546;9.954;2023-02-28T04:41:08;6.00;98.40
17639;DHT22;8938;53.546;9.954;2023-02-28T04:43:34;5.90;98.40
17639;DHT22;8938;53.546;9.954;2023-02-28T04:46:02;5.90;98.70
17639;DHT22;8938;53.546;9.954;2023-02-28T04:48:29;5.90;98.80
17639;DHT22;8938;53.546;9.954;2023-02-28T04:51:07;5.90;98.90
17639;DHT22;8938;53.546;9.954;2023-02-28T04:53:34;5.90;99.00
17639;DHT22;8938;53.546;9.954;2023-02-28T04:56:00;6.00;99.10
17639;DHT22;8938;53.546;9.954;2023-02-28T04:58:26;6.00;99.10
17639;DHT22;8938;53.546;9.954;2023-02-28T05:00:52;6.10;99.10
17639;DHT22;8938;53.546;9.954;2023-02-28T05:03:18;6.70;99.10
17639;DHT22;8938;53.546;9.954;2023-02-28T05:05:47;6.30;99.00
17639;DHT22;8938;53.546;9.954;2023-02-28T05:08:13;6.40;98.80
17639;DHT22;8938;53.546;9.954;2023-02-28T05:10:38;6.50;98.70
17639;DHT22;8938;53.546;9.954;2023-02-28T05:13:04;6.50;98.70
17639;DHT22;8938;53.546;9.954;2023-02-28T05:15:30;6.50;98.70
17639;DHT22;8938;53.546;9.954;2023-02-28T05:17:56;6.40;98.70
17639;DHT22;8938;53.546;9.954;2023-02-28T05:20:21;6.30;99.10
17639;DHT22;8938;53.546;9.954;2023-02-28T05:22:47;6.30;99.00
17639;DHT22;8938;53.546;9.954;2023-02-28T05:25:17;6.30;99.20
17639;DHT22;8938;53.546;9.954;2023-02-28T05:27:43;6.10;99.10
17639;DHT22;8938;53.546;9.954;2023-02-28T05:30:09;6.10;99.30
17639;DHT22;8938;53.546;9.954;2023-02-28T05:32:38;6.00;99.50
17639;DHT22;8938;53.546;9.954;2023-02-28T05:35:04;6.00;99.60
17639;DHT22;8938;53.546;9.954;2023-02-28T05:37:30;6.00;99.60
17639;DHT22;8938;53.546;9.954;2023-02-28T05:39:56;6.00;99.50
17639;DHT22;8938;53.546;9.954;2023-02-28T05:42:21;5.90;99.70
17639;DHT22;8938;53.546;9.954;2023-02-28T05:44:47;5.80;99.80
17639;DHT22;8938;53.546;9.954;2023-02-28T05:47:12;5.80;99.90
17639;DHT22;8938;53.546;9.954;2023-02-28T05:49:41;5.80;99.90
17639;DHT22;8938;53.546;9.954;2023-02-28T05:52:06;5.90;99.90
17639;DHT22;8938;53.546;9.954;2023-02-28T05:54:32;6.00;99.90
17639;DHT22;8938;53.546;9.954;2023-02-28T05:56:58;6.00;99.90
17639;DHT22;8938;53.546;9.954;2023-02-28T05:59:23;6.00;99.90
17639;DHT22;8938;53.546;9.954;2023-02-28T06:01:49;6.00;99.90
17639;DHT22;8938;53.546;9.954;2023-02-28T06:04:17;6.00;99.90
17639;DHT22;8938;53.546;9.954;2023-02-28T06:06:45;6.10;99.90
17639;DHT22;8938;53.546;9.954;2023-02-28T06:09:11;6.20;99.90
17639;DHT22;8938;53.546;9.954;2023-02-28T06:11:37;6.20;99.90
17639;DHT22;8938;53.546;9.954;2023-02-28T06:14:03;6.20;99.90
17639;DHT22;8938;53.546;9.954;2023-02-28T06:16:31;6.20;99.90
17639;DHT22;8938;53.546;9.954;2023-02-28T06:18:57;6.10;99.90
17639;DHT22;8938;53.546;9.954;2023-02-28T06:21:24;6.00;99.90
17639;DHT22;8938;53.546;9.954;2023-02-28T06:23:50;5.90;99.90
17639;DHT22;8938;53.546;9.954;2023-02-28T06:26:16;5.80;99.90
17639;DHT22;8938;53.546;9.954;2023-02-28T06:28:41;5.70;99.90
17639;DHT22;8938;53.546;9.954;2023-02-28T06:31:09;5.80;99.90
17639;DHT22;8938;53.546;9.954;2023-02-28T06:33:35;5.90;99.90
17639;DHT22;8938;53.546;9.954;2023-02-28T06:36:01;6.00;99.90
17639;DHT22;8938;53.546;9.954;2023-02-28T06:38:27;6.10;99.90
17639;DHT22;8938;53.546;9.954;2023-02-28T06:40:57;6.20;99.90
17639;DHT22;8938;53.546;9.954;2023-02-28T06:43:24;6.20;99.90
17639;DHT22;8938;53.546;9.954;2023-02-28T06:45:50;6.00;99.90
17639;DHT22;8938;53.546;9.954;2023-02-28T06:48:16;5.90;99.90
17639;DHT22;8938;53.546;9.954;2023-02-28T06:50:42;5.90;99.90
17639;DHT22;8938;53.546;9.954;2023-02-28T06:53:07;5.90;99.90
17639;DHT22;8938;53.546;9.954;2023-02-28T06:55:33;6.00;99.90
17639;DHT22;8938;53.546;9.954;2023-02-28T06:57:58;6.10;99.90
17639;DHT22;8938;53.546;9.954;2023-02-28T07:00:24;6.10;99.90
17639;DHT22;8938;53.546;9.954;2023-02-28T07:02:50;6.00;99.90
17639;DHT22;8938;53.546;9.954;2023-02-28T07:05:16;5.90;99.90
17639;DHT22;8938;53.546;9.954;2023-02-28T07:07:41;5.80;99.90
17639;DHT22;8938;53.546;9.954;2023-02-28T07:10:12;5.70;99.90
17639;DHT22;8938;53.546;9.954;2023-02-28T07:12:39;5.60;99.90
17639;DHT22;8938;53.546;9.954;2023-02-28T07:15:05;5.60;99.90
17639;DHT22;8938;53.546;9.954;2023-02-28T07:17:31;5.70;99.90
17639;DHT22;8938;53.546;9.954;2023-02-28T07:19:57;5.80;99.90
17639;DHT22;8938;53.546;9.954;2023-02-28T07:22:22;5.90;99.90
17639;DHT22;8938;53.546;9.954;2023-02-28T07:24:48;6.00;99.90
17639;DHT22;8938;53.546;9.954;2023-02-28T07:27:13;6.10;99.90
17639;DHT22;8938;53.546;9.954;2023-02-28T07:29:51;6.20;99.90
17639;DHT22;8938;53.546;9.954;2023-02-28T07:32:18;6.30;99.90
17639;DHT22;8938;53.546;9.954;2023-02-28T07:34:44;6.40;99.90
17639;DHT22;8938;53.546;9.954;2023-02-28T07:37:09;6.50;99.90
17639;DHT22;8938;53.546;9.954;2023-02-28T07:39:35;6.50;99.90
17639;DHT22;8938;53.546;9.954;2023-02-28T07:42:04;6.60;99.90
17639;DHT22;8938;53.546;9.954;2023-02-28T07:44:30;6.80;99.90
17639;DHT22;8938;53.546;9.954;2023-02-28T07:46:55;7.00;99.90
17639;DHT22;8938;53.546;9.954;2023-02-28T07:49:21;7.30;99.90
17639;DHT22;8938;53.546;9.954;2023-02-28T07:51:46;7.60;99.90
17639;DHT22;8938;53.546;9.954;2023-02-28T07:54:12;7.70;99.90
17639;DHT22;8938;53.546;9.954;2023-02-28T07:56:37;7.70;99.90
17639;DHT22;8938;53.546;9.954;2023-02-28T07:59:03;7.60;99.90
17639;DHT22;8938;53.546;9.954;2023-02-28T08:01:28;7.60;99.90
17639;DHT22;8938;53.546;9.954;2023-02-28T08:03:54;7.60;99.90
17639;DHT22;8938;53.546;9.954;2023-02-28T08:06:24;7.60;99.90
17639;DHT22;8938;53.546;9.954;2023-02-28T08:08:50;7.60;99.90
17639;DHT22;8938;53.546;9.954;2023-02-28T08:11:16;7.70;99.90
17639;DHT22;8938;53.546;9.954;2023-02-28T08:13:42;7.70;99.90
17639;DHT22;8938;53.546;9.954;2023-02-28T08:16:09;7.70;99.90
17639;DHT22;8938;53.546;9.954;2023-02-28T08:18:35;7.70;99.90
17639;DHT22;8938;53.546;9.954;2023-02-28T08:21:08;7.70;99.90
17639;DHT22;8938;53.546;9.954;2023-02-28T08:23:34;7.80;99.90
17639;DHT22;8938;53.546;9.954;2023-02-28T08:26:00;7.80;99.90
17639;DHT22;8938;53.546;9.954;2023-02-28T08:28:25;7.90;99.90
17639;DHT22;8938;53.546;9.954;2023-02-28T08:30:51;7.90;99.90
17639;DHT22;8938;53.546;9.954;2023-02-28T08:33:16;7.90;99.90
17639;DHT22;8938;53.546;9.954;2023-02-28T08:35:42;7.90;99.80
17639;DHT22;8938;53.546;9.954;2023-02-28T08:38:07;7.90;99.70
17639;DHT22;8938;53.546;9.954;2023-02-28T08:40:33;7.90;99.80
17639;DHT22;8938;53.546;9.954;2023-02-28T08:42:58;7.80;99.70
17639;DHT22;8938;53.546;9.954;2023-02-28T08:45:25;7.90;99.80
17639;DHT22;8938;53.546;9.954;2023-02-28T08:47:50;8.00;99.80
17639;DHT22;8938;53.546;9.954;2023-02-28T08:50:17;8.00;99.70
17639;DHT22;8938;53.546;9.954;2023-02-28T08:52:43;8.10;99.60
17639;DHT22;8938;53.546;9.954;2023-02-28T08:55:09;8.20;99.40
17639;DHT22;8938;53.546;9.954;2023-02-28T08:57:35;8.20;99.20
17639;DHT22;8938;53.546;9.954;2023-02-28T09:00:02;8.20;99.20
17639;DHT22;8938;53.546;9.954;2023-02-28T09:02:32;8.30;99.00
17639;DHT22;8938;53.546;9.954;2023-02-28T09:04:58;8.30;98.80
17639;DHT22;8938;53.546;9.954;2023-02-28T09:07:24;8.40;98.90
17639;DHT22;8938;53.546;9.954;2023-02-28T09:09:49;8.50;98.90
17639;DHT22;8938;53.546;9.954;2023-02-28T09:12:27;8.60;98.60
17639;DHT22;8938;53.546;9.954;2023-02-28T09:14:53;8.70;98.70
17639;DHT22;8938;53.546;9.954;2023-02-28T09:17:19;8.80;98.40
17639;DHT22;8938;53.546;9.954;2023-02-28T09:19:45;8.80;97.60
17639;DHT22;8938;53.546;9.954;2023-02-28T09:22:12;8.80;97.20
17639;DHT22;8938;53.546;9.954;2023-02-28T09:24:38;8.70;97.00
17639;DHT22;8938;53.546;9.954;2023-02-28T09:27:04;8.90;97.30
17639;DHT22;8938;53.546;9.954;2023-02-28T09:29:31;10.60;98.90
17639;DHT22;8938;53.546;9.954;2023-02-28T09:31:56;12.90;97.00
17639;DHT22;8938;53.546;9.954;2023-02-28T09:34:24;15.10;94.00
17639;DHT22;8938;53.546;9.954;2023-02-28T09:36:50;16.90;91.40
17639;DHT22;8938;53.546;9.954;2023-02-28T09:39:20;17.90;87.10
17639;DHT22;8938;53.546;9.954;2023-02-28T09:41:49;18.00;86.10
17639;DHT22;8938;53.546;9.954;2023-02-28T09:44:35;17.80;84.30
17639;DHT22;8938;53.546;9.954;2023-02-28T09:47:11;17.90;82.20
17639;DHT22;8938;53.546;9.954;2023-02-28T09:49:44;18.30;81.10
17639;DHT22;8938;53.546;9.954;2023-02-28T09:52:18;18.20;79.20
17639;DHT22;8938;53.546;9.954;2023-02-28T09:54:45;17.90;77.60
17639;DHT22;8938;53.546;9.954;2023-02-28T10:02:59;18.20;75.70
17639;DHT22;8938;53.546;9.954;2023-02-28T10:05:41;18.00;72.90
17639;DHT22;8938;53.546;9.954;2023-02-28T10:08:18;17.20;73.00
17639;DHT22;8938;53.546;9.954;2023-02-28T10:10:47;16.10;72.00
17639;DHT22;8938;53.546;9.954;2023-02-28T10:13:15;15.10;73.40
17639;DHT22;8938;53.546;9.954;2023-02-28T10:15:42;14.40;74.90
17639;DHT22;8938;53.546;9.954;2023-02-28T10:18:14;14.10;76.60
17639;DHT22;8938;53.546;9.954;2023-02-28T10:20:42;13.90;76.80
17639;DHT22;8938;53.546;9.954;2023-02-28T10:25:39;13.20;78.20
17639;DHT22;8938;53.546;9.954;2023-02-28T10:28:15;12.90;78.30
17639;DHT22;8938;53.546;9.954;2023-02-28T10:30:46;12.60;78.30
17639;DHT22;8938;53.546;9.954;2023-02-28T10:35:44;12.30;80.80
17639;DHT22;8938;53.546;9.954;2023-02-28T10:38:25;12.50;81.20
17639;DHT22;8938;53.546;9.954;2023-02-28T10:40:51;12.40;81.30
17639;DHT22;8938;53.546;9.954;2023-02-28T10:46:13;12.10;81.70
17639;DHT22;8938;53.546;9.954;2023-02-28T10:48:41;11.90;82.70
17639;DHT22;8938;53.546;9.954;2023-02-28T10:51:12;11.90;83.00
17639;DHT22;8938;53.546;9.954;2023-02-28T10:53:49;11.80;83.70
17639;DHT22;8938;53.546;9.954;2023-02-28T10:56:19;11.70;83.20
17639;DHT22;8938;53.546;9.954;2023-02-28T11:01:26;11.80;83.60
17639;DHT22;8938;53.546;9.954;2023-02-28T11:03:59;11.90;83.80
17639;DHT22;8938;53.546;9.954;2023-02-28T11:06:33;12.00;83.60
17639;DHT22;8938;53.546;9.954;2023-02-28T11:09:02;11.90;83.00
17639;DHT22;8938;53.546;9.954;2023-02-28T11:11:31;11.80;82.80
17639;DHT22;8938;53.546;9.954;2023-02-28T11:14:16;11.60;82.90
17639;DHT22;8938;53.546;9.954;2023-02-28T11:16:42;11.50;82.50
17639;DHT22;8938;53.546;9.954;2023-02-28T11:19:22;11.30;83.40
17639;DHT22;8938;53.546;9.954;2023-02-28T11:21:56;11.20;83.70
17639;DHT22;8938;53.546;9.954;2023-02-28T11:24:29;11.20;83.80
17639;DHT22;8938;53.546;9.954;2023-02-28T11:26:56;11.20;83.60
17639;DHT22;8938;53.546;9.954;2023-02-28T11:29:24;11.30;83.60
17639;DHT22;8938;53.546;9.954;2023-02-28T11:32:12;11.30;83.80
17639;DHT22;8938;53.546;9.954;2023-02-28T11:34:40;11.40;83.40
17639;DHT22;8938;53.546;9.954;2023-02-28T11:37:13;11.40;83.40
17639;DHT22;8938;53.546;9.954;2023-02-28T11:39:40;11.40;83.30
17639;DHT22;8938;53.546;9.954;2023-02-28T11:42:16;11.40;82.90
17639;DHT22;8938;53.546;9.954;2023-02-28T11:47:32;11.50;82.90
17639;DHT22;8938;53.546;9.954;2023-02-28T11:50:15;11.60;82.70
17639;DHT22;8938;53.546;9.954;2023-02-28T11:52:57;11.60;82.70
17639;DHT22;8938;53.546;9.954;2023-02-28T11:55:46;11.60;81.50
17639;DHT22;8938;53.546;9.954;2023-02-28T12:03:31;11.50;81.60
17639;DHT22;8938;53.546;9.954;2023-02-28T12:06:24;11.60;82.10
17639;DHT22;8938;53.546;9.954;2023-02-28T12:09:14;11.70;82.50
17639;DHT22;8938;53.546;9.954;2023-02-28T12:11:52;11.90;82.70
17639;DHT22;8938;53.546;9.954;2023-02-28T12:17:20;12.10;81.60
17639;DHT22;8938;53.546;9.954;2023-02-28T12:22:46;12.10;81.20
17639;DHT22;8938;53.546;9.954;2023-02-28T12:25:38;12.10;80.90
17639;DHT22;8938;53.546;9.954;2023-02-28T12:28:11;12.00;80.70
17639;DHT22;8938;53.546;9.954;2023-02-28T12:30:44;12.10;81.20
17639;DHT22;8938;53.546;9.954;2023-02-28T12:33:14;12.20;81.30
17639;DHT22;8938;53.546;9.954;2023-02-28T12:35:53;12.20;80.40
17639;DHT22;8938;53.546;9.954;2023-02-28T12:38:26;12.30;80.70
17639;DHT22;8938;53.546;9.954;2023-02-28T12:41:56;12.40;80.50
17639;DHT22;8938;53.546;9.954;2023-02-28T12:43:57;12.40;79.80
17639;DHT22;8938;53.546;9.954;2023-02-28T12:46:32;12.40;79.80
17639;DHT22;8938;53.546;9.954;2023-02-28T12:49:04;12.60;80.50
17639;DHT22;8938;53.546;9.954;2023-02-28T12:51:30;12.70;79.90
17639;DHT22;8938;53.546;9.954;2023-02-28T12:54:11;12.80;80.00
17639;DHT22;8938;53.546;9.954;2023-02-28T12:57:41;12.80;79.00
17639;DHT22;8938;53.546;9.954;2023-02-28T12:59:49;12.90;79.50
17639;DHT22;8938;53.546;9.954;2023-02-28T13:08:08;13.30;79.10
17639;DHT22;8938;53.546;9.954;2023-02-28T13:10:49;13.50;79.10
17639;DHT22;8938;53.546;9.954;2023-02-28T13:13:22;13.70;79.10
17639;DHT22;8938;53.546;9.954;2023-02-28T13:21:07;13.80;78.10
17639;DHT22;8938;53.546;9.954;2023-02-28T13:26:16;13.70;77.70
17639;DHT22;8938;53.546;9.954;2023-02-28T13:34:38;13.30;77.10
17639;DHT22;8938;53.546;9.954;2023-02-28T13:39:53;13.30;77.10
17639;DHT22;8938;53.546;9.954;2023-02-28T13:47:36;13.40;77.40
17639;DHT22;8938;53.546;9.954;2023-02-28T13:50:31;13.40;76.80
17639;DHT22;8938;53.546;9.954;2023-02-28T14:01:24;13.40;76.80
17639;DHT22;8938;53.546;9.954;2023-02-28T14:06:51;13.30;76.10
17639;DHT22;8938;53.546;9.954;2023-02-28T14:12:51;13.30;76.00
17639;DHT22;8938;53.546;9.954;2023-02-28T14:15:04;13.20;75.80
17639;DHT22;8938;53.546;9.954;2023-02-28T14:17:56;13.30;76.20
17639;DHT22;8938;53.546;9.954;2023-02-28T14:20:26;13.30;76.50
17639;DHT22;8938;53.546;9.954;2023-02-28T14:23:16;13.30;76.40
17639;DHT22;8938;53.546;9.954;2023-02-28T14:26:02;13.20;76.10
17639;DHT22;8938;53.546;9.954;2023-02-28T14:34:40;12.90;76.10
17639;DHT22;8938;53.546;9.954;2023-02-28T14:37:16;12.80;76.10
17639;DHT22;8938;53.546;9.954;2023-02-28T14:39:44;12.80;76.80
17639;DHT22;8938;53.546;9.954;2023-02-28T14:42:34;12.80;77.00
17639;DHT22;8938;53.546;9.954;2023-02-28T14:45:00;12.80;76.60
17639;DHT22;8938;53.546;9.954;2023-02-28T14:47:30;12.80;76.80
17639;DHT22;8938;53.546;9.954;2023-02-28T14:49:57;12.80;76.80
17639;DHT22;8938;53.546;9.954;2023-02-28T14:52:27;12.80;76.70
17639;DHT22;8938;53.546;9.954;2023-02-28T14:55:04;12.80;77.00
17639;DHT22;8938;53.546;9.954;2023-02-28T14:57:32;12.80;77.10
17639;DHT22;8938;53.546;9.954;2023-02-28T15:00:22;12.70;77.00
17639;DHT22;8938;53.546;9.954;2023-02-28T15:02:48;12.70;77.40
17639;DHT22;8938;53.546;9.954;2023-02-28T15:07:47;12.60;77.60
17639;DHT22;8938;53.546;9.954;2023-02-28T15:10:27;12.50;77.60
17639;DHT22;8938;53.546;9.954;2023-02-28T15:12:58;12.50;77.80
17639;DHT22;8938;53.546;9.954;2023-02-28T15:15:38;12.30;77.10
17639;DHT22;8938;53.546;9.954;2023-02-28T15:18:06;12.30;77.80
17639;DHT22;8938;53.546;9.954;2023-02-28T15:20:33;12.30;78.00
17639;DHT22;8938;53.546;9.954;2023-02-28T15:23:00;12.30;78.20
17639;DHT22;8938;53.546;9.954;2023-02-28T15:25:27;12.30;78.40
17639;DHT22;8938;53.546;9.954;2023-02-28T15:27:55;12.30;78.50
17639;DHT22;8938;53.546;9.954;2023-02-28T15:30:28;12.30;78.70
17639;DHT22;8938;53.546;9.954;2023-02-28T15:35:38;12.10;78.40
17639;DHT22;8938;53.546;9.954;2023-02-28T15:38:23;12.00;78.50
17639;DHT22;8938;53.546;9.954;2023-02-28T15:40:58;11.90;78.60
17639;DHT22;8938;53.546;9.954;2023-02-28T15:45:58;11.80;78.90
17639;DHT22;8938;53.546;9.954;2023-02-28T15:53:41;11.90;79.30
17639;DHT22;8938;53.546;9.954;2023-02-28T15:56:29;11.90;78.90
17639;DHT22;8938;53.546;9.954;2023-02-28T15:58:56;11.90;79.30
17639;DHT22;8938;53.546;9.954;2023-02-28T16:01:27;11.80;79.30
17639;DHT22;8938;53.546;9.954;2023-02-28T16:03:57;11.70;79.30
17639;DHT22;8938;53.546;9.954;2023-02-28T16:06:37;11.70;79.60
17639;DHT22;8938;53.546;9.954;2023-02-28T16:09:05;11.70;79.70
17639;DHT22;8938;53.546;9.954;2023-02-28T16:11:34;11.70;79.80
17639;DHT22;8938;53.546;9.954;2023-02-28T16:14:00;11.60;79.70
17639;DHT22;8938;53.546;9.954;2023-02-28T16:16:26;11.60;79.70
17639;DHT22;8938;53.546;9.954;2023-02-28T16:18:52;11.50;79.50
17639;DHT22;8938;53.546;9.954;2023-02-28T16:21:18;11.40;79.70
17639;DHT22;8938;53.546;9.954;2023-02-28T16:23:43;11.40;79.70
17639;DHT22;8938;53.546;9.954;2023-02-28T16:26:21;11.40;79.70
17639;DHT22;8938;53.546;9.954;2023-02-28T16:28:48;11.30;79.80
17639;DHT22;8938;53.546;9.954;2023-02-28T16:31:14;11.30;79.90
17639;DHT22;8938;53.546;9.954;2023-02-28T16:33:42;11.30;80.00
17639;DHT22;8938;53.546;9.954;2023-02-28T16:36:18;11.30;80.20
17639;DHT22;8938;53.546;9.954;2023-02-28T16:38:44;11.30;80.30
17639;DHT22;8938;53.546;9.954;2023-02-28T16:41:12;11.40;80.40
17639;DHT22;8938;53.546;9.954;2023-02-28T16:43:43;11.40;80.50
17639;DHT22;8938;53.546;9.954;2023-02-28T16:46:11;11.40;80.50
17639;DHT22;8938;53.546;9.954;2023-02-28T16:48:36;11.40;80.60
17639;DHT22;8938;53.546;9.954;2023-02-28T16:51:02;11.40;80.60
17639;DHT22;8938;53.546;9.954;2023-02-28T16:53:29;11.40;80.60
17639;DHT22;8938;53.546;9.954;2023-02-28T16:55:55;11.30;80.50
17639;DHT22;8938;53.546;9.954;2023-02-28T16:58:21;11.30;80.60
17639;DHT22;8938;53.546;9.954;2023-02-28T17:00:48;11.20;80.70
17639;DHT22;8938;53.546;9.954;2023-02-28T17:03:24;11.20;80.80
17639;DHT22;8938;53.546;9.954;2023-02-28T17:05:50;11.20;81.10
17639;DHT22;8938;53.546;9.954;2023-02-28T17:08:15;11.10;81.10
17639;DHT22;8938;53.546;9.954;2023-02-28T17:10:41;11.00;81.90
17639;DHT22;8938;53.546;9.954;2023-02-28T17:13:07;11.00;82.00
17639;DHT22;8938;53.546;9.954;2023-02-28T17:15:34;10.90;81.40
17639;DHT22;8938;53.546;9.954;2023-02-28T17:17:59;10.90;81.60
17639;DHT22;8938;53.546;9.954;2023-02-28T17:20:25;10.90;81.70
17639;DHT22;8938;53.546;9.954;2023-02-28T17:22:54;10.90;81.80
17639;DHT22;8938;53.546;9.954;2023-02-28T17:25:20;10.90;81.90
17639;DHT22;8938;53.546;9.954;2023-02-28T17:27:46;10.80;82.20
17639;DHT22;8938;53.546;9.954;2023-02-28T17:32:43;10.50;82.90
17639;DHT22;8938;53.546;9.954;2023-02-28T17:35:08;10.40;83.10
17639;DHT22;8938;53.546;9.954;2023-02-28T17:37:34;10.20;85.90
17639;DHT22;8938;53.546;9.954;2023-02-28T17:40:00;10.50;85.90
17639;DHT22;8938;53.546;9.954;2023-02-28T17:42:25;10.10;84.80
17639;DHT22;8938;53.546;9.954;2023-02-28T17:44:51;10.20;85.70
17639;DHT22;8938;53.546;9.954;2023-02-28T17:47:16;10.20;89.20
17639;DHT22;8938;53.546;9.954;2023-02-28T17:49:42;10.30;84.80
17639;DHT22;8938;53.546;9.954;2023-02-28T17:52:08;10.30;86.10
17639;DHT22;8938;53.546;9.954;2023-02-28T17:54:34;10.40;85.30
17639;DHT22;8938;53.546;9.954;2023-02-28T17:56:59;10.30;85.60
17639;DHT22;8938;53.546;9.954;2023-02-28T17:59:25;10.40;84.70
17639;DHT22;8938;53.546;9.954;2023-02-28T18:01:51;10.40;84.90
17639;DHT22;8938;53.546;9.954;2023-02-28T18:04:16;10.40;84.80
17639;DHT22;8938;53.546;9.954;2023-02-28T18:06:43;10.30;84.70
17639;DHT22;8938;53.546;9.954;2023-02-28T18:09:18;10.20;84.90
17639;DHT22;8938;53.546;9.954;2023-02-28T18:11:47;10.20;85.00